createdAt,value
2018-05-10T00:00:33.366Z,1001.01
2018-05-10T00:02:32.395Z,1001.06
2018-05-10T00:03:31.499Z,1001.03
2018-05-10T00:05:31.984Z,1000.99
2018-05-10T00:06:31.974Z,1001.04
2018-05-10T00:08:32.949Z,1001.02
2018-05-10T00:09:32.937Z,1001.03
2018-05-10T00:11:32.957Z,1001.05
2018-05-10T00:12:32.972Z,1001.02
2018-05-10T00:14:31.840Z,1001.02
2018-05-10T00:15:30.949Z,1001.07
2018-05-10T00:17:32.323Z,1001.07
2018-05-10T00:18:31.824Z,1001.10
2018-05-10T00:20:29.509Z,1001.09
2018-05-10T00:21:30.243Z,1001.10
2018-05-10T00:23:29.933Z,1001.12
2018-05-10T00:24:29.862Z,1001.13
2018-05-10T00:26:30.921Z,1001.14
2018-05-10T00:27:30.822Z,1001.16
2018-05-10T00:29:30.787Z,1001.05
2018-05-10T00:30:30.717Z,1001.14
2018-05-10T00:32:28.840Z,1001.19
2018-05-10T00:33:28.833Z,1001.13
2018-05-10T00:35:30.300Z,1001.18
2018-05-10T00:36:29.314Z,1001.14
2018-05-10T00:38:31.325Z,1001.17
2018-05-10T00:39:29.828Z,1001.16
2018-05-10T00:41:30.779Z,1001.22
2018-05-10T00:42:30.794Z,1001.28
2018-05-10T00:44:30.192Z,1001.28
2018-05-10T00:45:28.227Z,1001.29
2018-05-10T00:47:30.251Z,1001.31
2018-05-10T00:48:30.683Z,1001.30
2018-05-10T00:50:30.165Z,1001.37
2018-05-10T00:51:30.294Z,1001.38
2018-05-10T00:53:31.579Z,1001.36
2018-05-10T00:54:30.647Z,1001.41
2018-05-10T00:56:26.629Z,1001.37
2018-05-10T00:57:26.629Z,1001.44
2018-05-10T00:59:22.508Z,1001.43
2018-05-10T01:00:22.480Z,1001.44
2018-05-10T01:02:21.015Z,1001.40
2018-05-10T01:03:20.543Z,1001.42
2018-05-10T01:05:20.935Z,1001.43
2018-05-10T01:06:21.424Z,1001.44
2018-05-10T01:08:19.930Z,1001.48
2018-05-10T01:09:20.962Z,1001.44
2018-05-10T01:11:19.324Z,1001.42
2018-05-10T01:12:19.319Z,1001.41
2018-05-10T01:14:17.845Z,1001.37
2018-05-10T01:15:17.811Z,1001.36
2018-05-10T01:17:15.779Z,1001.44
2018-05-10T01:18:15.439Z,1001.38
2018-05-10T01:20:13.402Z,1001.40
2018-05-10T01:21:13.401Z,1001.41
2018-05-10T01:23:13.920Z,1001.39
2018-05-10T01:24:13.873Z,1001.41
2018-05-10T01:26:09.784Z,1001.43
2018-05-10T01:27:10.326Z,1001.46
2018-05-10T01:29:09.249Z,1001.52
2018-05-10T01:30:07.940Z,1001.49
2018-05-10T01:32:08.922Z,1001.47
2018-05-10T01:33:08.397Z,1001.55
2018-05-10T01:35:09.340Z,1001.53
2018-05-10T01:36:09.325Z,1001.55
2018-05-10T01:38:08.283Z,1001.51
2018-05-10T01:39:06.766Z,1001.55
2018-05-10T01:41:06.275Z,1001.54
2018-05-10T01:42:05.750Z,1001.54
2018-05-10T01:44:05.213Z,1001.50
2018-05-10T01:45:06.715Z,1001.48
2018-05-10T01:47:06.212Z,1001.45
2018-05-10T01:48:06.145Z,1001.46
2018-05-10T01:50:08.101Z,1001.48
2018-05-10T01:51:06.108Z,1001.51
2018-05-10T01:53:06.576Z,1001.52
2018-05-10T01:54:08.653Z,1001.59
2018-05-10T01:56:07.527Z,1001.58
2018-05-10T01:57:07.543Z,1001.60
2018-05-10T01:59:07.539Z,1001.66
2018-05-10T02:00:08.463Z,1001.67
2018-05-10T02:02:09.407Z,1001.71
2018-05-10T02:03:08.915Z,1001.70
2018-05-10T02:05:09.420Z,1001.71
2018-05-10T02:06:09.875Z,1001.75
2018-05-10T02:08:07.878Z,1001.76
2018-05-10T02:09:07.472Z,1001.76
2018-05-10T02:11:05.498Z,1001.64
2018-05-10T02:12:05.438Z,1001.77
2018-05-10T02:14:06.475Z,1001.79
2018-05-10T02:15:06.435Z,1001.80
2018-05-10T02:17:06.900Z,1001.78
2018-05-10T02:18:06.334Z,1001.78
2018-05-10T02:20:07.820Z,1001.80
2018-05-10T02:21:08.817Z,1001.79
2018-05-10T02:23:07.749Z,1001.73
2018-05-10T02:24:07.313Z,1001.75
2018-05-10T02:26:06.235Z,1001.74
2018-05-10T02:27:05.417Z,1001.78
2018-05-10T02:29:04.833Z,1001.76
2018-05-10T02:30:04.329Z,1001.80
2018-05-10T02:32:03.957Z,1001.80
2018-05-10T02:33:03.916Z,1001.80
2018-05-10T02:35:04.374Z,1001.79
2018-05-10T02:36:04.399Z,1001.82
2018-05-10T02:38:00.373Z,1001.78
2018-05-10T02:39:00.876Z,1001.83
2018-05-10T02:40:57.290Z,1001.80
2018-05-10T02:41:56.267Z,1001.80
2018-05-10T02:43:58.721Z,1001.91
2018-05-10T02:44:57.817Z,1001.91
2018-05-10T02:46:56.686Z,1001.92
2018-05-10T02:47:55.706Z,1001.91
2018-05-10T02:49:57.180Z,1001.95
2018-05-10T02:50:56.157Z,1001.89
2018-05-10T02:52:57.595Z,1001.95
2018-05-10T02:53:57.087Z,1002.03
2018-05-10T02:55:58.476Z,1002.03
2018-05-10T02:56:57.043Z,1002.04
2018-05-10T02:58:58.039Z,1002.08
2018-05-10T02:59:57.515Z,1002.05
2018-05-10T03:01:59.430Z,1002.10
2018-05-10T03:02:57.979Z,1002.14
2018-05-10T03:04:59.376Z,1002.13
2018-05-10T03:05:59.368Z,1002.13
2018-05-10T03:07:59.327Z,1002.13
2018-05-10T03:08:59.320Z,1002.14
2018-05-10T03:10:58.969Z,1002.13
2018-05-10T03:11:58.971Z,1002.13
2018-05-10T03:13:58.391Z,1002.14
2018-05-10T03:14:57.930Z,1002.12
2018-05-10T03:16:58.469Z,1002.18
2018-05-10T03:17:57.559Z,1002.19
2018-05-10T03:19:57.925Z,1002.26
2018-05-10T03:20:58.938Z,1002.29
2018-05-10T03:22:58.894Z,1002.32
2018-05-10T03:23:58.406Z,1002.35
2018-05-10T03:25:58.899Z,1002.34
2018-05-10T03:26:59.378Z,1002.30
2018-05-10T03:28:59.827Z,1002.27
2018-05-10T03:29:59.260Z,1002.28
2018-05-10T03:31:59.770Z,1002.25
2018-05-10T03:32:59.726Z,1002.23
2018-05-10T03:34:57.808Z,1002.25
2018-05-10T03:35:57.909Z,1002.25
2018-05-10T03:37:59.778Z,1002.24
2018-05-10T03:38:59.793Z,1002.21
2018-05-10T03:40:57.723Z,1002.22
2018-05-10T03:41:57.254Z,1002.24
2018-05-10T03:43:54.823Z,1002.26
2018-05-10T03:44:54.838Z,1002.29
2018-05-10T03:46:55.235Z,1002.30
2018-05-10T03:47:54.764Z,1002.30
2018-05-10T03:49:55.712Z,1002.39
2018-05-10T03:50:55.250Z,1002.41
2018-05-10T03:52:58.056Z,1002.50
2018-05-10T03:53:56.642Z,1002.52
2018-05-10T03:55:53.649Z,1002.55
2018-05-10T03:56:53.596Z,1002.61
2018-05-10T03:58:54.047Z,1002.61
2018-05-10T03:59:54.068Z,1002.66
2018-05-10T04:01:52.168Z,1002.67
2018-05-10T04:02:52.104Z,1002.66
2018-05-10T04:04:51.176Z,1002.68
2018-05-10T04:05:51.059Z,1002.71
2018-05-10T04:07:53.054Z,1002.74
2018-05-10T04:08:52.531Z,1002.73
2018-05-10T04:10:50.026Z,1002.80
2018-05-10T04:11:50.014Z,1002.83
2018-05-10T04:13:48.848Z,1002.85
2018-05-10T04:14:48.018Z,1002.84
2018-05-10T04:16:47.902Z,1002.84
2018-05-10T04:17:47.892Z,1002.87
2018-05-10T04:19:47.316Z,1002.90
2018-05-10T04:20:45.949Z,1002.96
2018-05-10T04:22:45.444Z,1002.97
2018-05-10T04:23:44.901Z,1003.02
2018-05-10T04:25:43.890Z,1003.01
2018-05-10T04:26:42.821Z,1003.05
2018-05-10T04:28:43.304Z,1003.07
2018-05-10T04:29:43.297Z,1003.07
2018-05-10T04:31:43.785Z,1003.07
2018-05-10T04:32:44.263Z,1003.08
2018-05-10T04:34:44.680Z,1003.04
2018-05-10T04:35:44.225Z,1003.04
2018-05-10T04:37:42.627Z,1003.14
2018-05-10T04:38:42.206Z,1003.10
2018-05-10T04:40:43.490Z,1003.17
2018-05-10T04:41:42.536Z,1003.20
2018-05-10T04:43:40.551Z,1003.25
2018-05-10T04:44:40.562Z,1003.26
2018-05-10T04:46:41.485Z,1003.30
2018-05-10T04:47:41.882Z,1003.31
2018-05-10T04:49:42.435Z,1003.33
2018-05-10T04:50:41.427Z,1003.40
2018-05-10T04:52:39.345Z,1003.39
2018-05-10T04:53:39.393Z,1003.37
2018-05-10T04:55:37.798Z,1003.43
2018-05-10T04:56:37.251Z,1003.50
2018-05-10T04:58:38.697Z,1003.53
2018-05-10T04:59:39.285Z,1003.55
2018-05-10T05:01:36.705Z,1003.52
2018-05-10T05:02:36.644Z,1003.55
2018-05-10T05:04:38.122Z,1003.55
2018-05-10T05:05:37.095Z,1003.56
2018-05-10T05:07:36.540Z,1003.58
2018-05-10T05:08:35.236Z,1003.56
2018-05-10T05:10:33.672Z,1003.54
2018-05-10T05:11:34.166Z,1003.56
2018-05-10T05:13:31.391Z,1003.59
2018-05-10T05:14:31.871Z,1003.55
2018-05-10T05:16:32.838Z,1003.56
2018-05-10T05:17:31.805Z,1003.57
2018-05-10T05:19:33.705Z,1003.62
2018-05-10T05:20:33.708Z,1003.63
2018-05-10T05:22:33.667Z,1003.65
2018-05-10T05:23:33.659Z,1003.72
2018-05-10T05:25:34.659Z,1003.76
2018-05-10T05:26:33.146Z,1003.79
2018-05-10T05:28:36.033Z,1003.84
2018-05-10T05:29:35.106Z,1003.84
2018-05-10T05:31:35.045Z,1003.86
2018-05-10T05:32:34.165Z,1003.89
2018-05-10T05:34:34.507Z,1003.84
2018-05-10T05:35:34.554Z,1003.93
2018-05-10T05:37:33.463Z,1003.89
2018-05-10T05:38:32.549Z,1003.89
2018-05-10T05:40:30.976Z,1003.96
2018-05-10T05:41:30.921Z,1003.94
2018-05-10T05:43:27.464Z,1003.93
2018-05-10T05:44:27.451Z,1003.94
2018-05-10T05:46:27.860Z,1003.95
2018-05-10T05:47:28.348Z,1003.95
2018-05-10T05:49:25.711Z,1003.99
2018-05-10T05:50:25.233Z,1003.99
2018-05-10T05:52:25.198Z,1004.01
2018-05-10T05:53:25.636Z,1004.04
2018-05-10T05:55:25.668Z,1004.09
2018-05-10T05:56:25.595Z,1004.07
2018-05-10T05:58:25.063Z,1004.10
2018-05-10T05:59:23.687Z,1004.07
2018-05-10T06:01:25.160Z,1004.13
2018-05-10T06:02:24.246Z,1004.13
2018-05-10T06:04:24.747Z,1004.16
2018-05-10T06:05:25.533Z,1004.19
2018-05-10T06:07:25.545Z,1004.20
2018-05-10T06:08:25.586Z,1004.26
2018-05-10T06:10:23.504Z,1004.24
2018-05-10T06:11:23.168Z,1004.26
2018-05-10T06:13:23.639Z,1004.34
2018-05-10T06:14:24.758Z,1004.38
2018-05-10T06:16:22.546Z,1004.40
2018-05-10T06:17:22.582Z,1004.44
2018-05-10T06:19:18.543Z,1004.44
2018-05-10T06:20:18.536Z,1004.42
2018-05-10T06:22:18.954Z,1004.50
2018-05-10T06:23:18.950Z,1004.44
2018-05-10T06:25:16.975Z,1004.45
2018-05-10T06:26:17.455Z,1004.50
2018-05-10T06:28:15.889Z,1004.50
2018-05-10T06:29:14.837Z,1004.44
2018-05-10T06:31:12.323Z,1004.45
2018-05-10T06:32:10.869Z,1004.45
2018-05-10T06:34:09.281Z,1004.41
2018-05-10T06:35:08.947Z,1004.43
2018-05-10T06:37:06.878Z,1004.41
2018-05-10T06:38:07.370Z,1004.42
2018-05-10T06:40:08.349Z,1004.41
2018-05-10T06:41:07.844Z,1004.41
2018-05-10T06:43:07.882Z,1004.40
2018-05-10T06:44:08.296Z,1004.43
2018-05-10T06:46:06.750Z,1004.37
2018-05-10T06:47:05.704Z,1004.37
2018-05-10T06:49:03.791Z,1004.36
2018-05-10T06:50:03.754Z,1004.34
2018-05-10T06:52:05.348Z,1004.38
2018-05-10T06:53:04.304Z,1004.35
2018-05-10T06:55:07.191Z,1004.38
2018-05-10T06:56:05.663Z,1004.41
2018-05-10T06:58:05.150Z,1004.39
2018-05-10T06:59:05.140Z,1004.37
2018-05-10T07:01:06.266Z,1004.41
2018-05-10T07:02:06.103Z,1004.42
2018-05-10T07:04:04.538Z,1004.40
2018-05-10T07:05:03.557Z,1004.41
2018-05-10T07:07:01.973Z,1004.47
2018-05-10T07:08:01.505Z,1004.50
2018-05-10T07:10:00.683Z,1004.46
2018-05-10T07:10:59.625Z,1004.49
2018-05-10T07:12:57.614Z,1004.51
2018-05-10T07:13:57.548Z,1004.54
2018-05-10T07:15:56.007Z,1004.56
2018-05-10T07:16:55.452Z,1004.49
2018-05-10T07:18:53.964Z,1004.55
2018-05-10T07:19:53.949Z,1004.60
2018-05-10T07:21:51.918Z,1004.58
2018-05-10T07:22:51.863Z,1004.57
2018-05-10T07:24:49.466Z,1004.61
2018-05-10T07:25:49.483Z,1004.59
2018-05-10T07:27:47.439Z,1004.55
2018-05-10T07:28:47.418Z,1004.55
2018-05-10T07:30:43.850Z,1004.54
2018-05-10T07:31:43.344Z,1004.55
2018-05-10T07:33:43.823Z,1004.56
2018-05-10T07:34:43.913Z,1004.49
2018-05-10T07:36:41.814Z,1004.58
2018-05-10T07:37:42.292Z,1004.59
2018-05-10T07:39:37.938Z,1004.58
2018-05-10T07:40:37.726Z,1004.60
2018-05-10T07:42:37.175Z,1004.58
2018-05-10T07:43:35.829Z,1004.62
2018-05-10T07:45:34.784Z,1004.63
2018-05-10T07:46:33.827Z,1004.66
2018-05-10T07:48:30.746Z,1004.63
2018-05-10T07:49:32.288Z,1004.65
2018-05-10T07:51:29.729Z,1004.79
2018-05-10T07:52:28.980Z,1004.80
2018-05-10T07:54:27.377Z,1004.83
2018-05-10T07:55:27.050Z,1004.83
2018-05-10T07:57:25.963Z,1004.90
2018-05-10T07:58:24.961Z,1004.95
2018-05-10T08:00:23.429Z,1005.00
2018-05-10T08:01:22.922Z,1004.97
2018-05-10T08:03:21.387Z,1005.00
2018-05-10T08:04:21.103Z,1005.01
2018-05-10T08:06:17.581Z,1005.02
2018-05-10T08:07:17.046Z,1005.07
2018-05-10T08:09:15.493Z,1005.08
2018-05-10T08:10:15.999Z,1005.06
2018-05-10T08:12:13.157Z,1005.17
2018-05-10T08:13:14.105Z,1005.15
2018-05-10T08:15:11.118Z,1005.16
2018-05-10T08:16:11.068Z,1005.22
2018-05-10T08:18:11.574Z,1005.25
2018-05-10T08:19:11.518Z,1005.28
2018-05-10T08:21:09.645Z,1005.28
2018-05-10T08:22:09.704Z,1005.33
2018-05-10T08:24:09.651Z,1005.34
2018-05-10T08:25:08.629Z,1005.41
2018-05-10T08:27:06.281Z,1005.43
2018-05-10T08:28:06.265Z,1005.41
2018-05-10T08:30:06.277Z,1005.45
2018-05-10T08:31:06.248Z,1005.44
2018-05-10T08:33:04.696Z,1005.49
2018-05-10T08:34:05.669Z,1005.48
2018-05-10T08:36:03.153Z,1005.59
2018-05-10T08:37:02.247Z,1005.55
2018-05-10T08:39:00.198Z,1005.64
2018-05-10T08:40:00.175Z,1005.70
2018-05-10T08:42:02.135Z,1005.70
2018-05-10T08:43:00.675Z,1005.75
2018-05-10T08:44:58.714Z,1005.72
2018-05-10T08:45:59.601Z,1005.79
2018-05-10T08:47:58.080Z,1005.83
2018-05-10T08:48:56.945Z,1005.85
2018-05-10T08:50:56.447Z,1005.87
2018-05-10T08:51:55.160Z,1005.93
2018-05-10T08:53:53.232Z,1005.96
2018-05-10T08:54:53.184Z,1005.96
2018-05-10T08:56:53.146Z,1006.00
2018-05-10T08:57:51.279Z,1006.07
2018-05-10T08:59:49.821Z,1006.07
2018-05-10T09:00:49.234Z,1006.10
2018-05-10T09:02:50.708Z,1006.11
2018-05-10T09:03:49.692Z,1006.12
2018-05-10T09:05:47.166Z,1006.18
2018-05-10T09:06:45.609Z,1006.13
2018-05-10T09:08:41.571Z,1006.19
2018-05-10T09:13:07.255Z,1006.16
2018-05-10T09:14:07.755Z,1006.20
